Terminal Aerodrome Forecast
Issued by NWS

Current Version | Previous Version | Text Only | Print | Product List | Glossary On
Versions: 1 2 3 4 5 6 7 8 9 10 11 12 13 14 15 16 17 18 19 20 21 22
542
FTUS46 KSTO 101156
TAFSMF
TAF
KSMF 101156Z 1012/1112 16015G25KT 6SM -RA BR OVC020
     FM102100 18012KT 5SM -SHRA BR OVC015
     FM110300 18008KT P6SM OVC015
     FM110900 VRB05KT P6SM OVC025=

USA.gov is the U.S. government's official web portal to all federal, state and local government web resources and services.